Mill Creek, Kentucky
Current Conditions -  °F | °C
As of 9:15 AM on Thursday 29 Jan 2015 (Local Time) from KFGX Reporting Station
Light Rain Light Rain  
Wind Chill: 30°   Ceiling: 5500
Heat Index: 38°   Visibility: 7mi
Dew Point: 31°   Wind: 15mph
Humidity: 74%   Direction: 210°SSW
Pressure: 29.94"   Gusts: 18mph
Location:  38.4934°N, 83.7754°W
Report Text: KFGX 291415Z AUTO 21013G16KT 7SM -RA OVC055 04/M01 A2994 RMK AO2 T00351007
Loading
Personal Weather Stations






























Interactive Weather Map New forecast layout! Learn more

10-Day Weather Forecast

Advertisements
Track Severe Weather on mobile